sensor_id;sensor_type;location;lat;lon;timestamp;temperature;humidity
21331;DHT22;10824;51.632;4.950;2022-10-29T00:00:55;15.00;99.90
21331;DHT22;10824;51.632;4.950;2022-10-29T00:03:23;15.00;99.90
21331;DHT22;10824;51.632;4.950;2022-10-29T00:06:10;14.90;99.90
21331;DHT22;10824;51.632;4.950;2022-10-29T00:08:39;14.90;99.90
21331;DHT22;10824;51.632;4.950;2022-10-29T00:11:11;14.80;99.90
21331;DHT22;10824;51.632;4.950;2022-10-29T00:13:39;14.80;99.90
21331;DHT22;10824;51.632;4.950;2022-10-29T00:16:10;14.70;99.90
21331;DHT22;10824;51.632;4.950;2022-10-29T00:18:38;14.70;99.90
21331;DHT22;10824;51.632;4.950;2022-10-29T00:21:07;14.70;99.90
21331;DHT22;10824;51.632;4.950;2022-10-29T00:23:34;14.70;99.90
21331;DHT22;10824;51.632;4.950;2022-10-29T00:26:02;14.70;99.90
21331;DHT22;10824;51.632;4.950;2022-10-29T00:28:33;14.60;99.90
21331;DHT22;10824;51.632;4.950;2022-10-29T00:31:05;14.60;99.90
21331;DHT22;10824;51.632;4.950;2022-10-29T00:33:32;14.60;99.90
21331;DHT22;10824;51.632;4.950;2022-10-29T00:36:19;14.60;99.90
21331;DHT22;10824;51.632;4.950;2022-10-29T00:38:49;14.50;99.90
21331;DHT22;10824;51.632;4.950;2022-10-29T00:41:19;14.40;99.90
21331;DHT22;10824;51.632;4.950;2022-10-29T00:43:52;14.30;99.90
21331;DHT22;10824;51.632;4.950;2022-10-29T00:46:42;14.30;99.90
21331;DHT22;10824;51.632;4.950;2022-10-29T00:49:10;14.30;99.90
21331;DHT22;10824;51.632;4.950;2022-10-29T00:51:37;14.20;99.90
21331;DHT22;10824;51.632;4.950;2022-10-29T00:54:09;14.20;99.90
21331;DHT22;10824;51.632;4.950;2022-10-29T00:56:37;14.20;99.90
21331;DHT22;10824;51.632;4.950;2022-10-29T00:59:06;14.20;99.90
21331;DHT22;10824;51.632;4.950;2022-10-29T01:01:35;14.10;99.90
21331;DHT22;10824;51.632;4.950;2022-10-29T01:04:03;14.10;99.90
21331;DHT22;10824;51.632;4.950;2022-10-29T01:06:31;14.10;99.90
21331;DHT22;10824;51.632;4.950;2022-10-29T01:08:59;14.10;99.90
21331;DHT22;10824;51.632;4.950;2022-10-29T01:14:35;14.00;99.90
21331;DHT22;10824;51.632;4.950;2022-10-29T01:22:47;14.00;99.90
21331;DHT22;10824;51.632;4.950;2022-10-29T01:31:45;13.80;99.90
21331;DHT22;10824;51.632;4.950;2022-10-29T01:34:28;13.80;99.90
21331;DHT22;10824;51.632;4.950;2022-10-29T01:37:03;13.80;99.90
21331;DHT22;10824;51.632;4.950;2022-10-29T01:39:43;13.80;99.90
21331;DHT22;10824;51.632;4.950;2022-10-29T01:42:28;13.80;99.90
21331;DHT22;10824;51.632;4.950;2022-10-29T01:45:16;13.70;99.90
21331;DHT22;10824;51.632;4.950;2022-10-29T01:47:50;13.70;99.90
21331;DHT22;10824;51.632;4.950;2022-10-29T01:50:22;13.60;99.90
21331;DHT22;10824;51.632;4.950;2022-10-29T01:52:50;13.60;99.90
21331;DHT22;10824;51.632;4.950;2022-10-29T01:55:20;13.60;99.90
21331;DHT22;10824;51.632;4.950;2022-10-29T01:57:48;13.50;99.90
21331;DHT22;10824;51.632;4.950;2022-10-29T02:00:17;13.50;99.90
21331;DHT22;10824;51.632;4.950;2022-10-29T02:08:50;13.50;99.90
21331;DHT22;10824;51.632;4.950;2022-10-29T02:14:06;13.50;99.90
21331;DHT22;10824;51.632;4.950;2022-10-29T02:16:34;13.50;99.90
21331;DHT22;10824;51.632;4.950;2022-10-29T02:19:02;13.50;99.90
21331;DHT22;10824;51.632;4.950;2022-10-29T02:21:30;13.50;99.90
21331;DHT22;10824;51.632;4.950;2022-10-29T02:23:57;13.50;99.90
21331;DHT22;10824;51.632;4.950;2022-10-29T02:26:27;13.50;99.90
21331;DHT22;10824;51.632;4.950;2022-10-29T02:28:54;13.40;99.90
21331;DHT22;10824;51.632;4.950;2022-10-29T02:31:21;13.40;99.90
21331;DHT22;10824;51.632;4.950;2022-10-29T02:33:48;13.40;99.90
21331;DHT22;10824;51.632;4.950;2022-10-29T02:36:15;13.40;99.90
21331;DHT22;10824;51.632;4.950;2022-10-29T02:38:44;13.30;99.90
21331;DHT22;10824;51.632;4.950;2022-10-29T02:41:11;13.30;99.90
21331;DHT22;10824;51.632;4.950;2022-10-29T02:43:38;13.30;99.90
21331;DHT22;10824;51.632;4.950;2022-10-29T02:46:16;13.30;99.90
21331;DHT22;10824;51.632;4.950;2022-10-29T02:48:44;13.30;99.90
21331;DHT22;10824;51.632;4.950;2022-10-29T02:51:11;13.30;99.90
21331;DHT22;10824;51.632;4.950;2022-10-29T02:53:38;13.40;99.90
21331;DHT22;10824;51.632;4.950;2022-10-29T02:56:06;13.40;99.90
21331;DHT22;10824;51.632;4.950;2022-10-29T02:58:36;13.50;99.90
21331;DHT22;10824;51.632;4.950;2022-10-29T03:01:04;13.50;99.90
21331;DHT22;10824;51.632;4.950;2022-10-29T03:03:31;13.50;99.90
21331;DHT22;10824;51.632;4.950;2022-10-29T03:05:58;13.50;99.90
21331;DHT22;10824;51.632;4.950;2022-10-29T03:08:25;13.50;99.90
21331;DHT22;10824;51.632;4.950;2022-10-29T03:10:54;13.50;99.90
21331;DHT22;10824;51.632;4.950;2022-10-29T03:13:21;13.40;99.90
21331;DHT22;10824;51.632;4.950;2022-10-29T03:15:48;13.40;99.90
21331;DHT22;10824;51.632;4.950;2022-10-29T03:18:15;13.40;99.90
21331;DHT22;10824;51.632;4.950;2022-10-29T03:20:42;13.40;99.90
21331;DHT22;10824;51.632;4.950;2022-10-29T03:23:11;13.40;99.90
21331;DHT22;10824;51.632;4.950;2022-10-29T03:25:38;13.40;99.90
21331;DHT22;10824;51.632;4.950;2022-10-29T03:28:05;13.40;99.90
21331;DHT22;10824;51.632;4.950;2022-10-29T03:30:32;13.40;99.90
21331;DHT22;10824;51.632;4.950;2022-10-29T03:33:00;13.40;99.90
21331;DHT22;10824;51.632;4.950;2022-10-29T03:35:27;13.40;99.90
21331;DHT22;10824;51.632;4.950;2022-10-29T03:37:55;13.40;99.90
21331;DHT22;10824;51.632;4.950;2022-10-29T03:40:22;13.40;99.90
21331;DHT22;10824;51.632;4.950;2022-10-29T03:42:49;13.40;99.90
21331;DHT22;10824;51.632;4.950;2022-10-29T03:45:16;13.30;99.90
21331;DHT22;10824;51.632;4.950;2022-10-29T03:47:43;13.30;99.90
21331;DHT22;10824;51.632;4.950;2022-10-29T03:50:10;13.30;99.90
21331;DHT22;10824;51.632;4.950;2022-10-29T03:52:37;13.30;99.90
21331;DHT22;10824;51.632;4.950;2022-10-29T03:55:05;13.30;99.90
21331;DHT22;10824;51.632;4.950;2022-10-29T03:57:32;13.40;99.90
21331;DHT22;10824;51.632;4.950;2022-10-29T03:59:59;13.40;99.90
21331;DHT22;10824;51.632;4.950;2022-10-29T04:02:26;13.40;99.90
21331;DHT22;10824;51.632;4.950;2022-10-29T04:04:53;13.40;99.90
21331;DHT22;10824;51.632;4.950;2022-10-29T04:07:21;13.30;99.90
21331;DHT22;10824;51.632;4.950;2022-10-29T04:09:48;13.40;99.90
21331;DHT22;10824;51.632;4.950;2022-10-29T04:12:15;13.40;99.90
21331;DHT22;10824;51.632;4.950;2022-10-29T04:14:41;13.40;99.90
21331;DHT22;10824;51.632;4.950;2022-10-29T04:17:11;13.40;99.90
21331;DHT22;10824;51.632;4.950;2022-10-29T04:19:38;13.30;99.90
21331;DHT22;10824;51.632;4.950;2022-10-29T04:22:06;13.30;99.90
21331;DHT22;10824;51.632;4.950;2022-10-29T04:24:53;13.30;99.90
21331;DHT22;10824;51.632;4.950;2022-10-29T04:27:40;13.30;99.90
21331;DHT22;10824;51.632;4.950;2022-10-29T04:30:27;13.20;99.90
21331;DHT22;10824;51.632;4.950;2022-10-29T04:32:56;13.20;99.90
21331;DHT22;10824;51.632;4.950;2022-10-29T04:35:25;13.20;99.90
21331;DHT22;10824;51.632;4.950;2022-10-29T04:37:53;13.20;99.90
21331;DHT22;10824;51.632;4.950;2022-10-29T04:40:22;13.20;99.90
21331;DHT22;10824;51.632;4.950;2022-10-29T04:42:50;13.20;99.90
21331;DHT22;10824;51.632;4.950;2022-10-29T04:45:17;13.20;99.90
21331;DHT22;10824;51.632;4.950;2022-10-29T04:47:44;13.20;99.90
21331;DHT22;10824;51.632;4.950;2022-10-29T04:50:12;13.20;99.90
21331;DHT22;10824;51.632;4.950;2022-10-29T04:52:39;13.20;99.90
21331;DHT22;10824;51.632;4.950;2022-10-29T04:55:06;13.20;99.90
21331;DHT22;10824;51.632;4.950;2022-10-29T04:57:33;13.30;99.90
21331;DHT22;10824;51.632;4.950;2022-10-29T05:00:00;13.30;99.90
21331;DHT22;10824;51.632;4.950;2022-10-29T05:02:27;13.30;99.90
21331;DHT22;10824;51.632;4.950;2022-10-29T05:04:54;13.20;99.90
21331;DHT22;10824;51.632;4.950;2022-10-29T05:07:21;13.20;99.90
21331;DHT22;10824;51.632;4.950;2022-10-29T05:09:49;13.20;99.90
21331;DHT22;10824;51.632;4.950;2022-10-29T05:12:16;13.20;99.90
21331;DHT22;10824;51.632;4.950;2022-10-29T05:14:44;13.20;99.90
21331;DHT22;10824;51.632;4.950;2022-10-29T05:17:11;13.10;99.90
21331;DHT22;10824;51.632;4.950;2022-10-29T05:19:38;13.20;99.90
21331;DHT22;10824;51.632;4.950;2022-10-29T05:22:05;13.10;99.90
21331;DHT22;10824;51.632;4.950;2022-10-29T05:24:32;13.10;99.90
21331;DHT22;10824;51.632;4.950;2022-10-29T05:27:04;13.10;99.90
21331;DHT22;10824;51.632;4.950;2022-10-29T05:29:32;13.20;99.90
21331;DHT22;10824;51.632;4.950;2022-10-29T05:31:59;13.30;99.90
21331;DHT22;10824;51.632;4.950;2022-10-29T05:34:26;13.30;99.90
21331;DHT22;10824;51.632;4.950;2022-10-29T05:36:53;13.30;99.90
21331;DHT22;10824;51.632;4.950;2022-10-29T05:39:20;13.30;99.90
21331;DHT22;10824;51.632;4.950;2022-10-29T05:41:47;13.40;99.90
21331;DHT22;10824;51.632;4.950;2022-10-29T05:44:14;13.40;99.90
21331;DHT22;10824;51.632;4.950;2022-10-29T05:46:41;13.40;99.90
21331;DHT22;10824;51.632;4.950;2022-10-29T05:49:08;13.50;99.90
21331;DHT22;10824;51.632;4.950;2022-10-29T05:51:38;13.50;99.90
21331;DHT22;10824;51.632;4.950;2022-10-29T05:54:06;13.50;99.90
21331;DHT22;10824;51.632;4.950;2022-10-29T05:56:33;13.50;99.90
21331;DHT22;10824;51.632;4.950;2022-10-29T05:59:00;13.50;99.90
21331;DHT22;10824;51.632;4.950;2022-10-29T06:01:27;13.60;99.90
21331;DHT22;10824;51.632;4.950;2022-10-29T06:03:54;13.50;99.90
21331;DHT22;10824;51.632;4.950;2022-10-29T06:06:21;13.50;99.90
21331;DHT22;10824;51.632;4.950;2022-10-29T06:08:48;13.50;99.90
21331;DHT22;10824;51.632;4.950;2022-10-29T06:11:16;13.60;99.90
21331;DHT22;10824;51.632;4.950;2022-10-29T06:13:43;13.60;99.90
21331;DHT22;10824;51.632;4.950;2022-10-29T06:16:10;13.60;99.90
21331;DHT22;10824;51.632;4.950;2022-10-29T06:18:37;13.60;99.90
21331;DHT22;10824;51.632;4.950;2022-10-29T06:21:04;13.60;99.90
21331;DHT22;10824;51.632;4.950;2022-10-29T06:23:31;13.70;99.90
21331;DHT22;10824;51.632;4.950;2022-10-29T06:25:59;13.70;99.90
21331;DHT22;10824;51.632;4.950;2022-10-29T06:28:27;13.70;99.90
21331;DHT22;10824;51.632;4.950;2022-10-29T06:31:00;13.80;99.90
21331;DHT22;10824;51.632;4.950;2022-10-29T06:33:28;13.80;99.90
21331;DHT22;10824;51.632;4.950;2022-10-29T06:36:01;13.90;99.90
21331;DHT22;10824;51.632;4.950;2022-10-29T06:38:31;13.80;99.90
21331;DHT22;10824;51.632;4.950;2022-10-29T06:40:58;13.90;99.90
21331;DHT22;10824;51.632;4.950;2022-10-29T06:43:26;13.90;99.90
21331;DHT22;10824;51.632;4.950;2022-10-29T06:45:54;13.90;99.90
21331;DHT22;10824;51.632;4.950;2022-10-29T06:48:21;13.90;99.90
21331;DHT22;10824;51.632;4.950;2022-10-29T06:50:49;13.90;99.90
21331;DHT22;10824;51.632;4.950;2022-10-29T06:53:16;13.90;99.90
21331;DHT22;10824;51.632;4.950;2022-10-29T06:55:43;14.00;99.90
21331;DHT22;10824;51.632;4.950;2022-10-29T06:58:18;14.10;99.90
21331;DHT22;10824;51.632;4.950;2022-10-29T07:00:46;14.10;99.90
21331;DHT22;10824;51.632;4.950;2022-10-29T07:03:15;14.10;99.90
21331;DHT22;10824;51.632;4.950;2022-10-29T07:05:43;14.20;99.90
21331;DHT22;10824;51.632;4.950;2022-10-29T07:08:11;14.20;99.90
21331;DHT22;10824;51.632;4.950;2022-10-29T07:10:38;14.10;99.90
21331;DHT22;10824;51.632;4.950;2022-10-29T07:13:05;14.10;99.90
21331;DHT22;10824;51.632;4.950;2022-10-29T07:15:32;14.20;99.90
21331;DHT22;10824;51.632;4.950;2022-10-29T07:18:02;14.30;99.90
21331;DHT22;10824;51.632;4.950;2022-10-29T07:20:31;14.30;99.90
21331;DHT22;10824;51.632;4.950;2022-10-29T07:22:59;14.20;99.90
21331;DHT22;10824;51.632;4.950;2022-10-29T07:25:28;14.20;99.90
21331;DHT22;10824;51.632;4.950;2022-10-29T07:28:04;14.20;99.90
21331;DHT22;10824;51.632;4.950;2022-10-29T07:30:32;14.20;99.90
21331;DHT22;10824;51.632;4.950;2022-10-29T07:33:00;14.30;99.90
21331;DHT22;10824;51.632;4.950;2022-10-29T07:35:27;14.30;99.90
21331;DHT22;10824;51.632;4.950;2022-10-29T07:38:03;14.30;99.90
21331;DHT22;10824;51.632;4.950;2022-10-29T07:40:37;14.40;99.90
21331;DHT22;10824;51.632;4.950;2022-10-29T07:43:05;14.40;99.90
21331;DHT22;10824;51.632;4.950;2022-10-29T07:45:32;14.40;99.90
21331;DHT22;10824;51.632;4.950;2022-10-29T07:48:04;14.50;99.90
21331;DHT22;10824;51.632;4.950;2022-10-29T07:50:33;14.60;99.90
21331;DHT22;10824;51.632;4.950;2022-10-29T07:53:01;14.60;99.90
21331;DHT22;10824;51.632;4.950;2022-10-29T07:55:29;14.70;99.90
21331;DHT22;10824;51.632;4.950;2022-10-29T07:58:04;14.80;99.90
21331;DHT22;10824;51.632;4.950;2022-10-29T08:00:34;14.80;99.90
21331;DHT22;10824;51.632;4.950;2022-10-29T08:03:02;14.90;99.90
21331;DHT22;10824;51.632;4.950;2022-10-29T08:05:29;14.90;99.90
21331;DHT22;10824;51.632;4.950;2022-10-29T08:07:57;15.00;99.90
21331;DHT22;10824;51.632;4.950;2022-10-29T08:10:25;15.00;99.90
21331;DHT22;10824;51.632;4.950;2022-10-29T08:12:55;15.00;99.90
21331;DHT22;10824;51.632;4.950;2022-10-29T08:15:29;15.10;99.90
21331;DHT22;10824;51.632;4.950;2022-10-29T08:17:57;15.20;99.90
21331;DHT22;10824;51.632;4.950;2022-10-29T08:20:25;15.20;99.90
21331;DHT22;10824;51.632;4.950;2022-10-29T08:22:53;15.30;99.90
21331;DHT22;10824;51.632;4.950;2022-10-29T08:25:21;15.30;99.90
21331;DHT22;10824;51.632;4.950;2022-10-29T08:28:02;15.30;99.90
21331;DHT22;10824;51.632;4.950;2022-10-29T08:30:33;15.40;99.90
21331;DHT22;10824;51.632;4.950;2022-10-29T08:33:00;15.50;99.90
21331;DHT22;10824;51.632;4.950;2022-10-29T08:35:28;15.60;99.90
21331;DHT22;10824;51.632;4.950;2022-10-29T08:37:55;15.70;99.90
21331;DHT22;10824;51.632;4.950;2022-10-29T08:45:55;15.90;99.90
21331;DHT22;10824;51.632;4.950;2022-10-29T08:48:42;15.90;99.90
21331;DHT22;10824;51.632;4.950;2022-10-29T08:51:30;16.00;99.90
21331;DHT22;10824;51.632;4.950;2022-10-29T08:54:00;16.00;99.90
21331;DHT22;10824;51.632;4.950;2022-10-29T08:56:53;16.00;99.90
21331;DHT22;10824;51.632;4.950;2022-10-29T08:59:22;16.10;99.90
21331;DHT22;10824;51.632;4.950;2022-10-29T09:01:51;16.10;99.90
21331;DHT22;10824;51.632;4.950;2022-10-29T09:04:38;16.10;99.90
21331;DHT22;10824;51.632;4.950;2022-10-29T09:10:40;16.20;99.90
21331;DHT22;10824;51.632;4.950;2022-10-29T09:22:01;16.40;99.90
21331;DHT22;10824;51.632;4.950;2022-10-29T09:27:05;16.50;99.90
21331;DHT22;10824;51.632;4.950;2022-10-29T09:32:31;16.50;99.90
21331;DHT22;10824;51.632;4.950;2022-10-29T09:35:03;16.60;99.90
21331;DHT22;10824;51.632;4.950;2022-10-29T09:40:39;16.60;99.90
21331;DHT22;10824;51.632;4.950;2022-10-29T09:54:38;16.90;99.90
21331;DHT22;10824;51.632;4.950;2022-10-29T09:57:06;17.00;99.90
21331;DHT22;10824;51.632;4.950;2022-10-29T09:59:43;17.10;99.90
21331;DHT22;10824;51.632;4.950;2022-10-29T10:02:25;17.10;99.90
21331;DHT22;10824;51.632;4.950;2022-10-29T10:04:57;17.30;99.90
21331;DHT22;10824;51.632;4.950;2022-10-29T10:07:25;17.40;99.90
21331;DHT22;10824;51.632;4.950;2022-10-29T10:09:56;17.50;99.90
21331;DHT22;10824;51.632;4.950;2022-10-29T10:12:43;17.70;99.90
21331;DHT22;10824;51.632;4.950;2022-10-29T10:15:19;18.00;99.90
21331;DHT22;10824;51.632;4.950;2022-10-29T10:18:03;18.30;99.90
21331;DHT22;10824;51.632;4.950;2022-10-29T10:20:39;18.40;99.90
21331;DHT22;10824;51.632;4.950;2022-10-29T10:23:24;18.70;99.90
21331;DHT22;10824;51.632;4.950;2022-10-29T10:25:54;18.90;99.90
21331;DHT22;10824;51.632;4.950;2022-10-29T10:28:30;19.00;99.90
21331;DHT22;10824;51.632;4.950;2022-10-29T10:31:10;19.10;99.90
21331;DHT22;10824;51.632;4.950;2022-10-29T10:33:49;19.20;99.90
21331;DHT22;10824;51.632;4.950;2022-10-29T10:36:22;19.30;99.90
21331;DHT22;10824;51.632;4.950;2022-10-29T10:38:53;19.30;99.90
21331;DHT22;10824;51.632;4.950;2022-10-29T10:41:27;19.50;99.90
21331;DHT22;10824;51.632;4.950;2022-10-29T10:44:03;19.80;99.90
21331;DHT22;10824;51.632;4.950;2022-10-29T10:46:41;19.90;98.90
21331;DHT22;10824;51.632;4.950;2022-10-29T10:49:19;20.10;97.20
21331;DHT22;10824;51.632;4.950;2022-10-29T10:51:50;20.10;97.60
21331;DHT22;10824;51.632;4.950;2022-10-29T10:54:34;20.00;97.30
21331;DHT22;10824;51.632;4.950;2022-10-29T10:57:04;19.90;97.00
21331;DHT22;10824;51.632;4.950;2022-10-29T11:05:20;19.70;96.30
21331;DHT22;10824;51.632;4.950;2022-10-29T11:08:16;19.90;96.80
21331;DHT22;10824;51.632;4.950;2022-10-29T11:10:51;20.10;95.10
21331;DHT22;10824;51.632;4.950;2022-10-29T11:13:31;20.30;95.10
21331;DHT22;10824;51.632;4.950;2022-10-29T11:22:14;20.60;93.10
21331;DHT22;10824;51.632;4.950;2022-10-29T11:25:07;20.70;92.30
21331;DHT22;10824;51.632;4.950;2022-10-29T11:28:08;20.70;90.80
21331;DHT22;10824;51.632;4.950;2022-10-29T11:30:47;20.80;90.50
21331;DHT22;10824;51.632;4.950;2022-10-29T11:33:40;21.00;90.40
21331;DHT22;10824;51.632;4.950;2022-10-29T11:36:18;21.20;89.80
21331;DHT22;10824;51.632;4.950;2022-10-29T11:39:22;21.50;89.50
21331;DHT22;10824;51.632;4.950;2022-10-29T11:41:57;21.70;87.60
21331;DHT22;10824;51.632;4.950;2022-10-29T11:44:28;21.80;86.30
21331;DHT22;10824;51.632;4.950;2022-10-29T11:52:39;22.10;81.70
21331;DHT22;10824;51.632;4.950;2022-10-29T11:57:58;22.10;80.60
21331;DHT22;10824;51.632;4.950;2022-10-29T12:00:50;22.10;80.30
21331;DHT22;10824;51.632;4.950;2022-10-29T12:06:36;22.20;80.80
21331;DHT22;10824;51.632;4.950;2022-10-29T12:09:41;22.10;77.60
21331;DHT22;10824;51.632;4.950;2022-10-29T12:12:31;22.20;83.00
21331;DHT22;10824;51.632;4.950;2022-10-29T12:18:18;22.40;78.30
21331;DHT22;10824;51.632;4.950;2022-10-29T12:27:01;22.50;77.10
21331;DHT22;10824;51.632;4.950;2022-10-29T12:29:39;22.60;75.90
21331;DHT22;10824;51.632;4.950;2022-10-29T12:32:37;22.70;76.30
21331;DHT22;10824;51.632;4.950;2022-10-29T12:35:25;22.80;75.90
21331;DHT22;10824;51.632;4.950;2022-10-29T12:40:52;23.00;66.90
21331;DHT22;10824;51.632;4.950;2022-10-29T12:43:29;23.00;69.70
21331;DHT22;10824;51.632;4.950;2022-10-29T12:56:44;23.30;62.40
21331;DHT22;10824;51.632;4.950;2022-10-29T12:59:34;23.30;64.00
21331;DHT22;10824;51.632;4.950;2022-10-29T13:02:18;23.40;62.50
21331;DHT22;10824;51.632;4.950;2022-10-29T13:07:33;23.10;46.30
21331;DHT22;10824;51.632;4.950;2022-10-29T13:16:01;22.80;49.20
21331;DHT22;10824;51.632;4.950;2022-10-29T13:22:05;22.50;54.90
21331;DHT22;10824;51.632;4.950;2022-10-29T13:24:32;22.40;57.90
21331;DHT22;10824;51.632;4.950;2022-10-29T13:29:48;22.20;57.90
21331;DHT22;10824;51.632;4.950;2022-10-29T13:32:35;22.20;67.90
21331;DHT22;10824;51.632;4.950;2022-10-29T13:43:10;22.20;61.80
21331;DHT22;10824;51.632;4.950;2022-10-29T13:45:45;22.20;62.00
21331;DHT22;10824;51.632;4.950;2022-10-29T13:48:31;22.10;62.00
21331;DHT22;10824;51.632;4.950;2022-10-29T13:51:04;22.00;67.60
21331;DHT22;10824;51.632;4.950;2022-10-29T13:53:51;22.00;70.30
21331;DHT22;10824;51.632;4.950;2022-10-29T13:56:44;22.00;72.00
21331;DHT22;10824;51.632;4.950;2022-10-29T13:59:18;22.00;71.40
21331;DHT22;10824;51.632;4.950;2022-10-29T14:01:56;21.90;76.80
21331;DHT22;10824;51.632;4.950;2022-10-29T14:04:30;21.90;77.90
21331;DHT22;10824;51.632;4.950;2022-10-29T14:07:04;22.00;76.40
21331;DHT22;10824;51.632;4.950;2022-10-29T14:09:55;21.90;77.00
21331;DHT22;10824;51.632;4.950;2022-10-29T14:12:29;22.00;75.10
21331;DHT22;10824;51.632;4.950;2022-10-29T14:15:10;22.00;74.50
21331;DHT22;10824;51.632;4.950;2022-10-29T14:17:37;22.00;76.40
21331;DHT22;10824;51.632;4.950;2022-10-29T14:20:22;22.00;73.20
21331;DHT22;10824;51.632;4.950;2022-10-29T14:22:50;22.00;73.70
21331;DHT22;10824;51.632;4.950;2022-10-29T14:28:43;22.00;74.10
21331;DHT22;10824;51.632;4.950;2022-10-29T14:31:13;22.10;73.80
21331;DHT22;10824;51.632;4.950;2022-10-29T14:33:45;22.10;76.50
21331;DHT22;10824;51.632;4.950;2022-10-29T14:36:26;22.10;73.90
21331;DHT22;10824;51.632;4.950;2022-10-29T14:42:05;22.10;71.00
21331;DHT22;10824;51.632;4.950;2022-10-29T14:44:37;22.10;71.20
21331;DHT22;10824;51.632;4.950;2022-10-29T14:50:16;22.00;73.40
21331;DHT22;10824;51.632;4.950;2022-10-29T14:52:57;22.00;72.20
21331;DHT22;10824;51.632;4.950;2022-10-29T14:55:32;21.90;72.60
21331;DHT22;10824;51.632;4.950;2022-10-29T15:00:31;21.80;74.70
21331;DHT22;10824;51.632;4.950;2022-10-29T15:03:02;21.80;74.80
21331;DHT22;10824;51.632;4.950;2022-10-29T15:05:35;21.80;76.30
21331;DHT22;10824;51.632;4.950;2022-10-29T15:13:33;21.60;78.70
21331;DHT22;10824;51.632;4.950;2022-10-29T15:16:02;21.50;82.40
21331;DHT22;10824;51.632;4.950;2022-10-29T15:18:32;21.40;84.20
21331;DHT22;10824;51.632;4.950;2022-10-29T15:21:00;21.30;85.90
21331;DHT22;10824;51.632;4.950;2022-10-29T15:23:31;21.20;86.40
21331;DHT22;10824;51.632;4.950;2022-10-29T15:26:14;21.20;87.50
21331;DHT22;10824;51.632;4.950;2022-10-29T15:28:43;21.10;88.50
21331;DHT22;10824;51.632;4.950;2022-10-29T15:31:32;21.00;88.20
21331;DHT22;10824;51.632;4.950;2022-10-29T15:34:07;21.10;87.90
21331;DHT22;10824;51.632;4.950;2022-10-29T15:36:49;21.10;87.60
21331;DHT22;10824;51.632;4.950;2022-10-29T15:39:27;21.00;87.90
21331;DHT22;10824;51.632;4.950;2022-10-29T15:41:59;20.90;87.80
21331;DHT22;10824;51.632;4.950;2022-10-29T15:44:37;20.90;87.10
21331;DHT22;10824;51.632;4.950;2022-10-29T15:47:27;20.80;87.00
21331;DHT22;10824;51.632;4.950;2022-10-29T15:49:55;20.80;87.70
21331;DHT22;10824;51.632;4.950;2022-10-29T15:52:26;20.80;85.20
21331;DHT22;10824;51.632;4.950;2022-10-29T15:54:54;21.00;80.20
21331;DHT22;10824;51.632;4.950;2022-10-29T15:57:21;21.10;79.60
21331;DHT22;10824;51.632;4.950;2022-10-29T15:59:48;21.00;79.30
21331;DHT22;10824;51.632;4.950;2022-10-29T16:02:21;21.10;77.20
21331;DHT22;10824;51.632;4.950;2022-10-29T16:04:49;21.10;76.50
21331;DHT22;10824;51.632;4.950;2022-10-29T16:07:16;21.00;77.00
21331;DHT22;10824;51.632;4.950;2022-10-29T16:09:54;21.10;76.30
21331;DHT22;10824;51.632;4.950;2022-10-29T16:12:23;21.10;76.90
21331;DHT22;10824;51.632;4.950;2022-10-29T16:14:50;21.10;77.20
21331;DHT22;10824;51.632;4.950;2022-10-29T16:17:18;21.00;77.80
21331;DHT22;10824;51.632;4.950;2022-10-29T16:19:46;21.00;78.50
21331;DHT22;10824;51.632;4.950;2022-10-29T16:22:21;21.00;78.40
21331;DHT22;10824;51.632;4.950;2022-10-29T16:24:55;21.00;78.40
21331;DHT22;10824;51.632;4.950;2022-10-29T16:27:31;20.90;79.10
21331;DHT22;10824;51.632;4.950;2022-10-29T16:30:01;20.90;78.80
21331;DHT22;10824;51.632;4.950;2022-10-29T16:32:31;20.80;78.60
21331;DHT22;10824;51.632;4.950;2022-10-29T16:34:58;20.70;80.00
21331;DHT22;10824;51.632;4.950;2022-10-29T16:37:25;20.70;80.00
21331;DHT22;10824;51.632;4.950;2022-10-29T16:39:52;20.70;80.10
21331;DHT22;10824;51.632;4.950;2022-10-29T16:42:34;20.60;80.00
21331;DHT22;10824;51.632;4.950;2022-10-29T16:45:03;20.60;79.70
21331;DHT22;10824;51.632;4.950;2022-10-29T16:47:30;20.60;80.20
21331;DHT22;10824;51.632;4.950;2022-10-29T16:49:57;20.60;80.60
21331;DHT22;10824;51.632;4.950;2022-10-29T16:52:25;20.50;81.10
21331;DHT22;10824;51.632;4.950;2022-10-29T16:54:55;20.50;81.70
21331;DHT22;10824;51.632;4.950;2022-10-29T16:57:22;20.50;80.60
21331;DHT22;10824;51.632;4.950;2022-10-29T16:59:50;20.50;80.30
21331;DHT22;10824;51.632;4.950;2022-10-29T17:02:17;20.40;80.40
21331;DHT22;10824;51.632;4.950;2022-10-29T17:04:44;20.40;80.30
21331;DHT22;10824;51.632;4.950;2022-10-29T17:07:11;20.30;80.00
21331;DHT22;10824;51.632;4.950;2022-10-29T17:09:38;20.40;79.40
21331;DHT22;10824;51.632;4.950;2022-10-29T17:12:06;20.30;79.50
21331;DHT22;10824;51.632;4.950;2022-10-29T17:14:33;20.30;79.50
21331;DHT22;10824;51.632;4.950;2022-10-29T17:17:00;20.30;79.90
21331;DHT22;10824;51.632;4.950;2022-10-29T17:19:28;20.20;81.50
21331;DHT22;10824;51.632;4.950;2022-10-29T17:21:55;20.10;81.90
21331;DHT22;10824;51.632;4.950;2022-10-29T17:24:27;20.00;82.30
21331;DHT22;10824;51.632;4.950;2022-10-29T17:26:54;20.00;83.20
21331;DHT22;10824;51.632;4.950;2022-10-29T17:29:21;20.00;83.30
21331;DHT22;10824;51.632;4.950;2022-10-29T17:31:48;19.90;84.60
21331;DHT22;10824;51.632;4.950;2022-10-29T17:34:16;19.80;84.60
21331;DHT22;10824;51.632;4.950;2022-10-29T17:36:43;19.80;85.90
21331;DHT22;10824;51.632;4.950;2022-10-29T17:39:10;19.70;86.40
21331;DHT22;10824;51.632;4.950;2022-10-29T17:41:39;19.70;87.20
21331;DHT22;10824;51.632;4.950;2022-10-29T17:44:06;19.60;87.50
21331;DHT22;10824;51.632;4.950;2022-10-29T17:46:35;19.60;88.30
21331;DHT22;10824;51.632;4.950;2022-10-29T17:49:02;19.50;89.10
21331;DHT22;10824;51.632;4.950;2022-10-29T17:51:42;19.50;89.80
21331;DHT22;10824;51.632;4.950;2022-10-29T17:54:16;19.40;90.00
21331;DHT22;10824;51.632;4.950;2022-10-29T17:56:44;19.40;90.80
21331;DHT22;10824;51.632;4.950;2022-10-29T17:59:11;19.30;90.50
21331;DHT22;10824;51.632;4.950;2022-10-29T18:01:39;19.30;90.80
21331;DHT22;10824;51.632;4.950;2022-10-29T18:04:06;19.30;91.00
21331;DHT22;10824;51.632;4.950;2022-10-29T18:06:33;19.20;91.40
21331;DHT22;10824;51.632;4.950;2022-10-29T18:09:00;19.20;91.90
21331;DHT22;10824;51.632;4.950;2022-10-29T18:11:27;19.10;92.70
21331;DHT22;10824;51.632;4.950;2022-10-29T18:13:55;19.00;93.30
21331;DHT22;10824;51.632;4.950;2022-10-29T18:16:25;19.00;93.60
21331;DHT22;10824;51.632;4.950;2022-10-29T18:18:56;18.90;94.10
21331;DHT22;10824;51.632;4.950;2022-10-29T18:21:29;18.90;94.50
21331;DHT22;10824;51.632;4.950;2022-10-29T18:23:59;18.90;94.70
21331;DHT22;10824;51.632;4.950;2022-10-29T18:26:31;18.80;95.00